Time;durP1;ratioP1;P1;durP2;ratioP2;P2;SDS_P1;SDS_P2;PMS_P1;PMS_P2;Temp;Humidity;BMP_temperature;BMP_pressure;BME280_temperature;BME280_humidity;BME280_pressure;Samples;Min_cycle;Max_cycle;Signal;HPM_P1;HPM_P2
2021/11/19 00:01:53;;;;;;;3.70;2.92;;;;;;;;;;5056399;28;20194;-84
2021/11/19 00:04:21;;;;;;;3.38;2.63;;;;;;;;;;5056140;28;20206;-84
2021/11/19 00:06:49;;;;;;;3.70;2.90;;;;;;;;;;5055448;28;20197;-84
2021/11/19 00:09:16;;;;;;;2.92;2.42;;;;;;;;;;5055922;28;20226;-84
2021/11/19 00:11:48;;;;;;;2.45;2.25;;;;;;;;;;5055827;28;20202;-85
2021/11/19 00:14:18;;;;;;;2.90;2.58;;;;;;;;;;5056192;28;20192;-84
2021/11/19 00:16:49;;;;;;;3.42;3.10;;;;;;;;;;5055664;28;20186;-84
2021/11/19 00:19:17;;;;;;;3.28;2.67;;;;;;;;;;5056197;28;20235;-83
2021/11/19 00:21:45;;;;;;;4.50;2.85;;;;;;;;;;5055653;28;20208;-83
2021/11/19 00:24:13;;;;;;;3.03;2.83;;;;;;;;;;5055587;28;20205;-83
2021/11/19 00:26:41;;;;;;;2.90;2.58;;;;;;;;;;5055517;28;20202;-84
2021/11/19 00:29:12;;;;;;;2.75;2.45;;;;;;;;;;5055680;28;20218;-84
2021/11/19 00:31:40;;;;;;;3.05;2.75;;;;;;;;;;5055651;28;20194;-84
2021/11/19 00:34:08;;;;;;;2.70;2.50;;;;;;;;;;5055328;28;20213;-84
2021/11/19 00:36:37;;;;;;;2.80;2.00;;;;;;;;;;5055580;28;20562;-84
2021/11/19 00:39:08;;;;;;;2.40;2.20;;;;;;;;;;5055754;28;20589;-84
2021/11/19 00:41:37;;;;;;;3.47;3.17;;;;;;;;;;5055938;28;20645;-84
2021/11/19 00:44:06;;;;;;;2.40;2.20;;;;;;;;;;5055497;28;20559;-84
2021/11/19 00:46:35;;;;;;;3.17;2.85;;;;;;;;;;5056053;28;20194;-84
2021/11/19 00:49:03;;;;;;;3.45;3.15;;;;;;;;;;5054454;28;20225;-84
2021/11/19 00:51:36;;;;;;;2.10;2.00;;;;;;;;;;5055745;28;20189;-84
2021/11/19 00:54:05;;;;;;;2.17;1.90;;;;;;;;;;5055099;28;20632;-84
2021/11/19 00:56:41;;;;;;;1.70;1.60;;;;;;;;;;5055789;28;20222;-84
2021/11/19 00:59:10;;;;;;;2.83;1.80;;;;;;;;;;5055959;28;20706;-84
2021/11/19 01:01:43;;;;;;;5.72;2.50;;;;;;;;;;5055794;28;20185;-84
2021/11/19 01:04:13;;;;;;;2.90;2.70;;;;;;;;;;5055649;28;20189;-84
2021/11/19 01:06:42;;;;;;;3.88;2.40;;;;;;;;;;5056059;28;20194;-84
2021/11/19 01:09:13;;;;;;;5.15;3.00;;;;;;;;;;5054921;28;20233;-84
2021/11/19 01:11:41;;;;;;;2.70;2.50;;;;;;;;;;5055621;28;20200;-85
2021/11/19 01:14:17;;;;;;;3.00;2.70;;;;;;;;;;5055533;28;20553;-84
2021/11/19 01:16:51;;;;;;;2.53;2.33;;;;;;;;;;5055837;28;20201;-84
2021/11/19 01:19:22;;;;;;;2.67;2.35;;;;;;;;;;5059524;28;20594;-84
2021/11/19 01:21:56;;;;;;;2.67;2.45;;;;;;;;;;5060030;28;20201;-84
2021/11/19 01:24:25;;;;;;;2.72;2.50;;;;;;;;;;5061190;28;20182;-84
2021/11/19 01:26:52;;;;;;;4.72;2.53;;;;;;;;;;5060839;28;20197;-83
2021/11/19 01:29:21;;;;;;;3.38;2.15;;;;;;;;;;5060823;28;20225;-84
2021/11/19 01:31:53;;;;;;;4.13;2.90;;;;;;;;;;5059857;28;20224;-85
2021/11/19 01:34:21;;;;;;;2.70;2.50;;;;;;;;;;5060642;28;20198;-84
2021/11/19 01:36:49;;;;;;;3.28;2.53;;;;;;;;;;5060779;28;20193;-83
2021/11/19 01:39:21;;;;;;;3.67;3.03;;;;;;;;;;5061030;28;20312;-84
2021/11/19 01:41:54;;;;;;;3.50;2.92;;;;;;;;;;5061535;28;20192;-84
2021/11/19 01:44:26;;;;;;;2.88;2.30;;;;;;;;;;5061561;28;20197;-84
2021/11/19 01:46:57;;;;;;;3.47;2.75;;;;;;;;;;5062388;28;20213;-84
2021/11/19 01:49:27;;;;;;;3.65;3.22;;;;;;;;;;5060658;28;20232;-84
2021/11/19 01:52:00;;;;;;;4.70;3.72;;;;;;;;;;5060447;28;20190;-85
2021/11/19 01:54:34;;;;;;;2.45;2.25;;;;;;;;;;5059509;28;20574;-84
2021/11/19 01:57:13;;;;;;;5.40;3.17;;;;;;;;;;5060140;28;20190;-84
2021/11/19 01:59:44;;;;;;;4.32;2.47;;;;;;;;;;5060345;28;20891;-84
2021/11/19 02:02:18;;;;;;;5.80;2.78;;;;;;;;;;5062039;28;20204;-84
2021/11/19 02:04:52;;;;;;;4.07;2.80;;;;;;;;;;5061945;28;20269;-84
2021/11/19 02:07:23;;;;;;;2.35;2.15;;;;;;;;;;5061073;28;20186;-84
2021/11/19 02:10:01;;;;;;;2.80;2.60;;;;;;;;;;5065575;22;20264;-82
2021/11/19 02:12:36;;;;;;;2.92;2.70;;;;;;;;;;5035180;28;20668;-82
2021/11/19 02:15:13;;;;;;;5.20;2.90;;;;;;;;;;5034406;28;20554;-82
2021/11/19 02:17:44;;;;;;;2.40;2.20;;;;;;;;;;5035046;28;20190;-82
2021/11/19 02:20:14;;;;;;;2.78;2.28;;;;;;;;;;5034534;28;20265;-82
2021/11/19 02:22:46;;;;;;;3.55;1.92;;;;;;;;;;5035321;28;20198;-82
2021/11/19 02:25:18;;;;;;;3.15;2.67;;;;;;;;;;5034874;28;20190;-82
2021/11/19 02:27:50;;;;;;;2.83;2.45;;;;;;;;;;5034390;28;20183;-82
2021/11/19 02:30:23;;;;;;;3.88;2.80;;;;;;;;;;5033762;28;20226;-82
2021/11/19 02:32:58;;;;;;;2.80;2.60;;;;;;;;;;5034307;28;20190;-83
2021/11/19 02:35:31;;;;;;;3.40;2.65;;;;;;;;;;5034175;28;20186;-83
2021/11/19 02:38:05;;;;;;;2.13;1.98;;;;;;;;;;5034651;28;20193;-83
2021/11/19 02:40:37;;;;;;;4.03;1.90;;;;;;;;;;5034885;28;20248;-83
2021/11/19 02:43:11;;;;;;;2.28;2.17;;;;;;;;;;5034090;28;20198;-82
2021/11/19 02:45:42;;;;;;;2.33;2.15;;;;;;;;;;5034317;28;20213;-82
2021/11/19 02:48:15;;;;;;;2.53;2.28;;;;;;;;;;5033505;28;20179;-82
2021/11/19 02:50:44;;;;;;;3.42;2.90;;;;;;;;;;5034242;28;20280;-82
2021/11/19 02:53:13;;;;;;;3.95;2.13;;;;;;;;;;5033858;28;20747;-82
2021/11/19 02:55:45;;;;;;;3.03;2.30;;;;;;;;;;5034137;28;20187;-83
2021/11/19 02:58:17;;;;;;;3.00;2.70;;;;;;;;;;5034231;28;20197;-83
2021/11/19 03:00:51;;;;;;;3.78;3.05;;;;;;;;;;5034232;28;20182;-82
2021/11/19 03:03:20;;;;;;;2.55;2.35;;;;;;;;;;5032880;28;20174;-82
2021/11/19 03:05:48;;;;;;;3.78;2.80;;;;;;;;;;5033483;28;20202;-82
2021/11/19 03:08:15;;;;;;;4.20;2.72;;;;;;;;;;5033912;28;20197;-82
2021/11/19 03:10:46;;;;;;;2.60;2.40;;;;;;;;;;5034192;28;20197;-82
2021/11/19 03:13:15;;;;;;;2.35;2.15;;;;;;;;;;5033999;28;20201;-84
2021/11/19 03:15:46;;;;;;;3.05;2.75;;;;;;;;;;5033948;28;20179;-82
2021/11/19 03:18:17;;;;;;;2.65;2.45;;;;;;;;;;5033534;28;20568;-82
2021/11/19 03:20:49;;;;;;;3.25;2.78;;;;;;;;;;5033828;28;20186;-84
2021/11/19 03:23:17;;;;;;;3.92;3.53;;;;;;;;;;5033761;28;20225;-84
2021/11/19 03:25:45;;;;;;;3.53;3.00;;;;;;;;;;5034128;28;20686;-82
2021/11/19 03:28:17;;;;;;;3.05;2.63;;;;;;;;;;5033671;28;20179;-81
2021/11/19 03:30:48;;;;;;;3.78;3.35;;;;;;;;;;5033553;28;20183;-82
2021/11/19 03:33:20;;;;;;;4.28;3.67;;;;;;;;;;5033532;28;20209;-82
2021/11/19 03:35:51;;;;;;;4.95;4.03;;;;;;;;;;5034556;28;20194;-82
2021/11/19 03:38:20;;;;;;;4.60;3.80;;;;;;;;;;5033354;28;20244;-84
2021/11/19 03:40:49;;;;;;;3.83;3.53;;;;;;;;;;5034039;28;20187;-84
2021/11/19 03:43:21;;;;;;;5.28;3.60;;;;;;;;;;5033576;28;20189;-84
2021/11/19 03:45:54;;;;;;;4.18;3.75;;;;;;;;;;5032744;28;20209;-84
2021/11/19 03:48:23;;;;;;;3.70;3.13;;;;;;;;;;5032289;28;20186;-83
2021/11/19 03:50:57;;;;;;;3.42;2.60;;;;;;;;;;5033211;28;20301;-84
2021/11/19 03:53:26;;;;;;;3.53;3.22;;;;;;;;;;5033057;28;20199;-84
2021/11/19 03:55:56;;;;;;;5.80;3.83;;;;;;;;;;5033072;28;20570;-84
2021/11/19 03:58:29;;;;;;;3.30;3.00;;;;;;;;;;5032042;28;20191;-84
2021/11/19 04:01:00;;;;;;;3.22;2.95;;;;;;;;;;5037653;28;20658;-83
2021/11/19 04:03:28;;;;;;;3.83;2.90;;;;;;;;;;5052259;28;20204;-83
2021/11/19 04:05:57;;;;;;;3.95;3.38;;;;;;;;;;5052489;28;20186;-84
2021/11/19 04:08:25;;;;;;;3.30;3.00;;;;;;;;;;5051441;28;20222;-83
2021/11/19 04:10:53;;;;;;;4.15;2.97;;;;;;;;;;5053222;28;20182;-84
2021/11/19 04:13:21;;;;;;;3.60;3.30;;;;;;;;;;5053249;28;20204;-84
2021/11/19 04:15:52;;;;;;;4.85;4.40;;;;;;;;;;5052635;28;20201;-84
2021/11/19 04:18:21;;;;;;;3.00;2.70;;;;;;;;;;5052609;28;20204;-84
2021/11/19 04:20:50;;;;;;;3.30;3.00;;;;;;;;;;5053151;28;20656;-84
2021/11/19 04:23:19;;;;;;;3.53;3.05;;;;;;;;;;5052589;28;20193;-84
2021/11/19 04:25:47;;;;;;;3.40;3.10;;;;;;;;;;5053386;28;20192;-84
2021/11/19 04:28:15;;;;;;;5.28;4.38;;;;;;;;;;5052378;28;20209;-84
2021/11/19 04:30:49;;;;;;;4.65;4.22;;;;;;;;;;5052839;28;20190;-84
2021/11/19 04:33:17;;;;;;;3.50;3.20;;;;;;;;;;5052529;28;20188;-84
2021/11/19 04:35:45;;;;;;;4.35;3.88;;;;;;;;;;5053512;28;20209;-84
2021/11/19 04:38:13;;;;;;;3.80;3.42;;;;;;;;;;5053452;28;20186;-84
2021/11/19 04:40:42;;;;;;;4.10;3.70;;;;;;;;;;5053765;28;20186;-84
2021/11/19 04:43:11;;;;;;;4.35;4.03;;;;;;;;;;5052946;28;20208;-84
2021/11/19 04:45:40;;;;;;;3.60;3.33;;;;;;;;;;5052930;28;20189;-84
2021/11/19 04:48:08;;;;;;;5.40;4.90;;;;;;;;;;5052528;28;20209;-84
2021/11/19 04:50:39;;;;;;;3.45;3.15;;;;;;;;;;5052960;28;20218;-83
2021/11/19 04:53:08;;;;;;;6.13;3.92;;;;;;;;;;5054944;28;20552;-84
2021/11/19 04:55:36;;;;;;;3.40;3.10;;;;;;;;;;5056676;28;20192;-84
2021/11/19 04:58:06;;;;;;;4.28;3.47;;;;;;;;;;5056188;28;20202;-84
2021/11/19 05:00:37;;;;;;;3.03;2.67;;;;;;;;;;5056384;28;20304;-84
2021/11/19 05:03:05;;;;;;;5.68;4.70;;;;;;;;;;5057317;28;20223;-84
2021/11/19 05:05:33;;;;;;;3.97;3.60;;;;;;;;;;5057940;28;20209;-84
2021/11/19 05:08:01;;;;;;;4.13;3.72;;;;;;;;;;5057606;28;20210;-84
2021/11/19 05:10:29;;;;;;;3.35;3.03;;;;;;;;;;5056642;28;20237;-84
2021/11/19 05:12:59;;;;;;;3.03;2.75;;;;;;;;;;5057721;28;20737;-84
2021/11/19 05:15:29;;;;;;;3.50;3.20;;;;;;;;;;5056046;28;20197;-84
2021/11/19 05:17:57;;;;;;;3.85;3.40;;;;;;;;;;5056263;28;20193;-84
2021/11/19 05:20:26;;;;;;;5.72;4.30;;;;;;;;;;5056729;28;20229;-84
2021/11/19 05:22:55;;;;;;;3.50;3.20;;;;;;;;;;5056089;28;20186;-84
2021/11/19 05:25:29;;;;;;;4.90;4.50;;;;;;;;;;5056439;28;20205;-84
2021/11/19 05:27:56;;;;;;;6.00;4.80;;;;;;;;;;5055468;28;20233;-84
2021/11/19 05:30:24;;;;;;;6.35;4.63;;;;;;;;;;5056052;28;20308;-84
2021/11/19 05:32:53;;;;;;;3.85;3.45;;;;;;;;;;5056242;28;20212;-84
2021/11/19 05:35:22;;;;;;;4.97;4.47;;;;;;;;;;5056778;28;20193;-85
2021/11/19 05:37:50;;;;;;;3.50;3.22;;;;;;;;;;5056680;28;20192;-84
2021/11/19 05:40:20;;;;;;;4.70;3.83;;;;;;;;;;5056523;28;20229;-84
2021/11/19 05:42:49;;;;;;;3.05;2.65;;;;;;;;;;5055310;28;20794;-84
2021/11/19 05:45:20;;;;;;;3.13;2.67;;;;;;;;;;5051456;28;20205;-85
2021/11/19 05:47:49;;;;;;;4.18;3.78;;;;;;;;;;5036012;28;20214;-85
2021/11/19 05:50:21;;;;;;;3.55;3.35;;;;;;;;;;5037799;28;20222;-85
2021/11/19 05:52:52;;;;;;;4.97;3.63;;;;;;;;;;5055575;28;20194;-85
2021/11/19 05:55:24;;;;;;;3.60;3.08;;;;;;;;;;5057996;28;20531;-85
2021/11/19 05:57:51;;;;;;;3.78;3.38;;;;;;;;;;5058327;28;20190;-85
2021/11/19 06:00:32;;;;;;;2.88;2.67;;;;;;;;;;5050419;28;20214;-85
2021/11/19 06:03:00;;;;;;;2.80;2.53;;;;;;;;;;5058040;28;20189;-85
2021/11/19 06:05:29;;;;;;;2.90;2.63;;;;;;;;;;5055962;28;20182;-85
2021/11/19 06:07:57;;;;;;;4.28;3.88;;;;;;;;;;5055751;28;20234;-85
2021/11/19 06:10:27;;;;;;;3.60;3.30;;;;;;;;;;5056239;28;20233;-85
2021/11/19 06:12:59;;;;;;;3.92;3.50;;;;;;;;;;5056766;28;20198;-85
2021/11/19 06:15:31;;;;;;;3.10;2.80;;;;;;;;;;5057430;28;20305;-85
2021/11/19 06:18:02;;;;;;;2.47;2.28;;;;;;;;;;5058116;28;20201;-85
2021/11/19 06:20:35;;;;;;;2.70;2.50;;;;;;;;;;5057927;28;20221;-85
2021/11/19 06:23:07;;;;;;;2.55;2.35;;;;;;;;;;5057065;28;20192;-85
2021/11/19 06:25:37;;;;;;;3.22;2.92;;;;;;;;;;5057431;28;20224;-85
2021/11/19 06:28:08;;;;;;;3.22;2.88;;;;;;;;;;5057633;28;20210;-85
2021/11/19 06:30:36;;;;;;;4.38;4.00;;;;;;;;;;5057002;28;20605;-84
2021/11/19 06:33:04;;;;;;;4.13;3.50;;;;;;;;;;5057235;28;20197;-84
2021/11/19 06:35:34;;;;;;;4.55;4.15;;;;;;;;;;5056767;28;20201;-85
2021/11/19 06:38:02;;;;;;;5.45;4.95;;;;;;;;;;5057219;28;20189;-84
2021/11/19 06:40:33;;;;;;;3.08;2.88;;;;;;;;;;5057191;28;20218;-83
2021/11/19 06:43:01;;;;;;;4.63;4.22;;;;;;;;;;5057757;28;20193;-82
2021/11/19 06:45:29;;;;;;;7.93;4.60;;;;;;;;;;5056715;28;20201;-83
2021/11/19 06:47:58;;;;;;;4.53;3.50;;;;;;;;;;5058018;28;20218;-83
2021/11/19 06:50:29;;;;;;;3.35;3.03;;;;;;;;;;5056477;28;20228;-83
2021/11/19 06:52:58;;;;;;;4.53;4.07;;;;;;;;;;5056662;28;20225;-84
2021/11/19 06:55:26;;;;;;;3.92;3.47;;;;;;;;;;5057755;28;20205;-84
2021/11/19 06:57:54;;;;;;;3.50;3.20;;;;;;;;;;5057105;28;20193;-83
2021/11/19 07:00:24;;;;;;;4.13;3.72;;;;;;;;;;5056605;28;20222;-82
2021/11/19 07:02:52;;;;;;;4.43;4.03;;;;;;;;;;5058570;28;20672;-82
2021/11/19 07:05:20;;;;;;;4.47;3.38;;;;;;;;;;5057387;28;20194;-83
2021/11/19 07:07:49;;;;;;;3.80;3.50;;;;;;;;;;5056626;28;20578;-83
2021/11/19 07:10:23;;;;;;;4.40;4.00;;;;;;;;;;5056417;28;20240;-83
2021/11/19 07:12:50;;;;;;;4.43;4.03;;;;;;;;;;5057117;28;20205;-82
2021/11/19 07:15:19;;;;;;;4.60;4.18;;;;;;;;;;5056709;28;20186;-84
2021/11/19 07:17:47;;;;;;;3.65;3.35;;;;;;;;;;5056346;28;20299;-84
2021/11/19 07:20:18;;;;;;;3.20;3.00;;;;;;;;;;5056893;28;20225;-83
2021/11/19 07:22:46;;;;;;;3.58;3.28;;;;;;;;;;5055742;28;20190;-83
2021/11/19 07:25:18;;;;;;;2.88;2.65;;;;;;;;;;5056008;28;22404;-84
2021/11/19 07:27:53;;;;;;;3.63;3.33;;;;;;;;;;5056445;28;20189;-83
2021/11/19 07:30:24;;;;;;;4.97;3.15;;;;;;;;;;5055632;28;20714;-84
2021/11/19 07:32:51;;;;;;;3.63;3.33;;;;;;;;;;5056262;28;20194;-83
2021/11/19 07:35:20;;;;;;;3.85;3.55;;;;;;;;;;5055976;28;20194;-83
2021/11/19 07:37:48;;;;;;;4.13;3.05;;;;;;;;;;5055812;28;20196;-83
2021/11/19 07:40:22;;;;;;;3.95;2.83;;;;;;;;;;5055905;28;20214;-84
2021/11/19 07:42:49;;;;;;;3.05;2.72;;;;;;;;;;5056765;28;20186;-83
2021/11/19 07:45:19;;;;;;;2.92;2.47;;;;;;;;;;5056055;28;20189;-84
2021/11/19 07:47:48;;;;;;;3.45;3.15;;;;;;;;;;5056478;28;20182;-84
2021/11/19 07:50:20;;;;;;;3.88;3.58;;;;;;;;;;5056159;28;20222;-83
2021/11/19 07:52:47;;;;;;;3.47;3.17;;;;;;;;;;5055365;28;20639;-83
2021/11/19 07:55:16;;;;;;;3.85;3.50;;;;;;;;;;5055787;28;20186;-84
2021/11/19 07:57:45;;;;;;;2.88;2.67;;;;;;;;;;5055167;28;20190;-84
2021/11/19 08:00:17;;;;;;;2.35;2.25;;;;;;;;;;5054901;28;20221;-84
2021/11/19 08:02:44;;;;;;;2.67;2.47;;;;;;;;;;5055581;28;20208;-84
2021/11/19 08:05:12;;;;;;;3.00;2.78;;;;;;;;;;5055571;28;20670;-84
2021/11/19 08:07:39;;;;;;;3.38;2.83;;;;;;;;;;5055699;28;20197;-84
2021/11/19 08:10:09;;;;;;;2.50;2.30;;;;;;;;;;5054838;28;20605;-84
2021/11/19 08:12:37;;;;;;;3.30;3.00;;;;;;;;;;5055989;28;20578;-84
2021/11/19 08:15:08;;;;;;;3.05;2.85;;;;;;;;;;5055651;28;20217;-84
2021/11/19 08:17:41;;;;;;;2.53;2.33;;;;;;;;;;5055897;28;20574;-84
2021/11/19 08:20:13;;;;;;;3.25;2.95;;;;;;;;;;5056072;28;20230;-84
2021/11/19 08:22:40;;;;;;;3.15;2.95;;;;;;;;;;5054059;28;20651;-84
2021/11/19 08:25:09;;;;;;;2.67;2.47;;;;;;;;;;5054770;28;20216;-84
2021/11/19 08:27:41;;;;;;;2.92;2.72;;;;;;;;;;5034084;28;20188;-84
2021/11/19 08:30:16;;;;;;;2.83;2.63;;;;;;;;;;5042987;28;20236;-84
2021/11/19 08:32:44;;;;;;;3.22;2.92;;;;;;;;;;5048096;28;20201;-84
2021/11/19 08:35:12;;;;;;;2.85;2.65;;;;;;;;;;5053712;28;20182;-83
2021/11/19 08:37:40;;;;;;;2.95;2.75;;;;;;;;;;5054061;28;20209;-84
2021/11/19 08:40:12;;;;;;;2.65;2.45;;;;;;;;;;5054053;28;20214;-84
2021/11/19 08:42:40;;;;;;;2.47;2.30;;;;;;;;;;5053802;28;20580;-85
2021/11/19 08:45:12;;;;;;;4.03;3.60;;;;;;;;;;5054768;28;20216;-84
2021/11/19 08:47:40;;;;;;;3.13;2.83;;;;;;;;;;5054475;28;20659;-83
2021/11/19 08:50:10;;;;;;;2.88;2.67;;;;;;;;;;5054407;28;20221;-84
2021/11/19 08:52:38;;;;;;;3.28;2.97;;;;;;;;;;5054264;28;20225;-84
2021/11/19 08:55:08;;;;;;;2.83;2.63;;;;;;;;;;5052302;28;20193;-84
2021/11/19 08:57:38;;;;;;;3.08;2.83;;;;;;;;;;5052805;28;20198;-85
2021/11/19 09:00:08;;;;;;;2.38;2.20;;;;;;;;;;5044728;28;20213;-86
2021/11/19 09:02:36;;;;;;;2.75;2.17;;;;;;;;;;5055719;28;20666;-84
2021/11/19 09:05:07;;;;;;;2.63;2.42;;;;;;;;;;5056598;28;20564;-86
2021/11/19 09:07:38;;;;;;;2.72;2.53;;;;;;;;;;5056932;28;20201;-85
2021/11/19 09:10:12;;;;;;;3.10;2.67;;;;;;;;;;5056380;28;20695;-83
2021/11/19 09:12:39;;;;;;;3.90;3.60;;;;;;;;;;5056171;28;20220;-85
2021/11/19 09:15:11;;;;;;;3.60;3.40;;;;;;;;;;5056947;28;20182;-84
2021/11/19 09:17:52;;;;;;;3.45;3.13;;;;;;;;;;5056341;28;20273;-84
2021/11/19 09:20:28;;;;;;;2.58;2.38;;;;;;;;;;5054821;28;20730;-84
2021/11/19 09:23:04;;;;;;;3.10;2.80;;;;;;;;;;5055849;28;20189;-84
2021/11/19 09:25:33;;;;;;;3.13;2.85;;;;;;;;;;5055377;28;20682;-84
2021/11/19 09:28:01;;;;;;;2.15;2.03;;;;;;;;;;5056208;28;20201;-84
2021/11/19 09:30:37;;;;;;;3.47;3.17;;;;;;;;;;5055831;28;20226;-83
2021/11/19 09:33:11;;;;;;;2.10;2.00;;;;;;;;;;5055850;28;20641;-83
2021/11/19 09:35:39;;;;;;;2.97;2.78;;;;;;;;;;5056964;28;20190;-83
2021/11/19 09:38:09;;;;;;;2.38;2.17;;;;;;;;;;5061718;28;20175;-84
2021/11/19 09:40:40;;;;;;;2.65;2.53;;;;;;;;;;5075362;28;20216;-84
2021/11/19 09:43:23;;;;;;;1.98;1.88;;;;;;;;;;5066839;28;20198;-84
2021/11/19 09:46:40;;;;;;;2.35;2.20;;;;;;;;;;5065594;28;20227;-84
2021/11/19 09:49:44;;;;;;;2.88;2.30;;;;;;;;;;5003907;28;20642;-84
2021/11/19 09:53:23;;;;;;;2.67;2.47;;;;;;;;;;5067076;28;20215;-85
2021/11/19 09:56:11;;;;;;;3.22;2.95;;;;;;;;;;5067697;28;20264;-84
2021/11/19 09:58:52;;;;;;;2.45;2.25;;;;;;;;;;5064286;28;20221;-84
2021/11/19 10:02:06;;;;;;;3.10;2.65;;;;;;;;;;5066634;28;20216;-84
2021/11/19 10:05:18;;;;;;;2.55;2.38;;;;;;;;;;4983258;28;20208;-84
2021/11/19 10:07:58;;;;;;;2.33;2.22;;;;;;;;;;5063830;28;20186;-84
2021/11/19 10:10:52;;;;;;;2.47;1.95;;;;;;;;;;5039373;28;20249;-85
2021/11/19 10:13:39;;;;;;;2.17;2.00;;;;;;;;;;5061282;28;20203;-84
2021/11/19 10:16:20;;;;;;;2.38;2.17;;;;;;;;;;5054603;28;20189;-87
2021/11/19 10:18:54;;;;;;;2.00;1.90;;;;;;;;;;5066033;28;20222;-85
2021/11/19 10:21:32;;;;;;;1.98;1.88;;;;;;;;;;5060008;28;20181;-85
2021/11/19 10:24:07;;;;;;;2.38;2.17;;;;;;;;;;5059941;28;20197;-85
2021/11/19 10:26:38;;;;;;;2.75;2.55;;;;;;;;;;5059402;28;20190;-83
2021/11/19 10:29:10;;;;;;;1.88;1.77;;;;;;;;;;5058184;28;20224;-84
2021/11/19 10:31:37;;;;;;;2.65;2.45;;;;;;;;;;5059378;28;20226;-85
2021/11/19 10:34:17;;;;;;;2.20;2.00;;;;;;;;;;5059403;28;20198;-85
2021/11/19 10:37:41;;;;;;;2.05;1.95;;;;;;;;;;5059535;28;20582;-85
2021/11/19 10:40:40;;;;;;;2.28;2.00;;;;;;;;;;5011451;28;20229;-86
2021/11/19 10:43:35;;;;;;;1.85;1.75;;;;;;;;;;5059835;28;20194;-85
2021/11/19 10:47:17;;;;;;;2.20;2.10;;;;;;;;;;5059696;28;20204;-85
2021/11/19 10:50:47;;;;;;;1.83;1.73;;;;;;;;;;5040999;28;20584;-85
2021/11/19 10:54:13;;;;;;;1.58;1.48;;;;;;;;;;5037659;28;20204;-84
2021/11/19 10:56:51;;;;;;;1.88;1.77;;;;;;;;;;5048468;28;20212;-85
2021/11/19 10:59:39;;;;;;;1.83;1.73;;;;;;;;;;5059335;28;20228;-85
2021/11/19 11:02:33;;;;;;;2.45;2.30;;;;;;;;;;5059248;28;20201;-86
2021/11/19 11:05:02;;;;;;;2.00;1.80;;;;;;;;;;5059034;28;20206;-85
2021/11/19 11:07:33;;;;;;;2.22;2.13;;;;;;;;;;5059055;28;20205;-85
2021/11/19 11:10:06;;;;;;;2.13;1.92;;;;;;;;;;5058474;28;20240;-85
2021/11/19 11:12:48;;;;;;;2.20;2.10;;;;;;;;;;5059127;28;20292;-85
2021/11/19 11:15:31;;;;;;;2.17;1.98;;;;;;;;;;5058410;28;20210;-85
2021/11/19 11:18:07;;;;;;;2.15;2.05;;;;;;;;;;5058886;28;20237;-84
2021/11/19 11:20:38;;;;;;;1.55;1.45;;;;;;;;;;5059160;28;20575;-86
2021/11/19 11:23:24;;;;;;;1.90;1.80;;;;;;;;;;5058926;28;20260;-85
2021/11/19 11:26:02;;;;;;;1.60;1.50;;;;;;;;;;5058691;28;20201;-85
2021/11/19 11:28:47;;;;;;;1.23;1.23;;;;;;;;;;5058267;28;20221;-85
2021/11/19 11:31:29;;;;;;;1.30;1.20;;;;;;;;;;5058714;28;20226;-85
2021/11/19 11:33:59;;;;;;;2.10;2.00;;;;;;;;;;5058576;28;20223;-85
2021/11/19 11:36:38;;;;;;;2.08;1.95;;;;;;;;;;5058421;28;20224;-85
2021/11/19 11:39:13;;;;;;;1.67;1.58;;;;;;;;;;5058616;28;20225;-85
2021/11/19 11:41:57;;;;;;;2.10;2.00;;;;;;;;;;5057200;28;20201;-86
2021/11/19 11:44:40;;;;;;;1.40;1.30;;;;;;;;;;5058285;28;20208;-85
2021/11/19 11:47:12;;;;;;;1.95;1.67;;;;;;;;;;5057487;28;20205;-85
2021/11/19 11:49:54;;;;;;;1.08;1.08;;;;;;;;;;5058236;28;20308;-85
2021/11/19 11:53:07;;;;;;;1.52;1.40;;;;;;;;;;5057563;28;20687;-85
2021/11/19 11:55:40;;;;;;;1.20;1.20;;;;;;;;;;4999074;28;20214;-86
2021/11/19 11:58:33;;;;;;;1.38;1.27;;;;;;;;;;5057414;28;20208;-85
2021/11/19 12:01:12;;;;;;;1.52;1.40;;;;;;;;;;5057495;28;20202;-85
2021/11/19 12:03:48;;;;;;;1.33;1.23;;;;;;;;;;5057457;28;20674;-85
2021/11/19 12:06:19;;;;;;;1.40;1.30;;;;;;;;;;5057325;28;20201;-85
2021/11/19 12:09:04;;;;;;;1.70;1.60;;;;;;;;;;5056811;28;20714;-85
2021/11/19 12:12:30;;;;;;;1.80;1.67;;;;;;;;;;5057619;28;20227;-85
2021/11/19 12:15:08;;;;;;;1.52;1.42;;;;;;;;;;5040639;28;20668;-85
2021/11/19 12:17:50;;;;;;;1.42;1.33;;;;;;;;;;5057834;28;20197;-85
2021/11/19 12:20:40;;;;;;;1.55;1.45;;;;;;;;;;5058196;28;20209;-85
2021/11/19 12:23:24;;;;;;;1.40;1.30;;;;;;;;;;5058203;28;20227;-85
2021/11/19 12:26:26;;;;;;;1.17;1.15;;;;;;;;;;5057981;28;20228;-85
2021/11/19 12:29:07;;;;;;;1.65;1.55;;;;;;;;;;5057432;28;20233;-85
2021/11/19 12:31:39;;;;;;;1.00;1.00;;;;;;;;;;5058300;28;20221;-85
2021/11/19 12:34:22;;;;;;;0.90;0.90;;;;;;;;;;5057914;28;20774;-85
2021/11/19 12:37:03;;;;;;;0.90;0.90;;;;;;;;;;5057195;28;20209;-85
2021/11/19 12:39:36;;;;;;;1.25;1.25;;;;;;;;;;5057531;28;20220;-85
2021/11/19 12:42:11;;;;;;;2.42;0.90;;;;;;;;;;5057194;28;20213;-86
2021/11/19 12:45:04;;;;;;;0.90;0.90;;;;;;;;;;5056883;28;20197;-86
2021/11/19 12:48:23;;;;;;;3.17;1.95;;;;;;;;;;5056965;28;20202;-85
2021/11/19 12:51:04;;;;;;;1.05;1.02;;;;;;;;;;5057996;28;20194;-85
2021/11/19 12:54:05;;;;;;;1.17;1.08;;;;;;;;;;5057543;28;20199;-85
2021/11/19 12:56:54;;;;;;;1.13;1.10;;;;;;;;;;5057013;28;20205;-86
2021/11/19 12:59:23;;;;;;;1.60;1.50;;;;;;;;;;5056716;28;20703;-85
2021/11/19 13:02:25;;;;;;;0.85;0.85;;;;;;;;;;5057316;28;20197;-85
2021/11/19 13:05:01;;;;;;;2.20;1.40;;;;;;;;;;5057123;28;20204;-85
2021/11/19 13:07:43;;;;;;;2.15;1.25;;;;;;;;;;5056390;28;20201;-85
2021/11/19 13:10:41;;;;;;;1.65;1.55;;;;;;;;;;5057180;28;20229;-85
2021/11/19 13:13:32;;;;;;;1.33;1.23;;;;;;;;;;5056771;28;20221;-85
2021/11/19 13:16:40;;;;;;;0.90;0.90;;;;;;;;;;5060637;28;20213;-85
2021/11/19 13:19:49;;;;;;;1.67;1.58;;;;;;;;;;5056064;28;20721;-85
2021/11/19 13:22:48;;;;;;;1.40;1.30;;;;;;;;;;5060294;28;20197;-85
2021/11/19 13:25:44;;;;;;;1.48;1.40;;;;;;;;;;5060083;28;20205;-86
2021/11/19 13:28:11;;;;;;;1.80;1.70;;;;;;;;;;5060514;28;20202;-85
2021/11/19 13:30:48;;;;;;;1.92;1.60;;;;;;;;;;5060436;28;20209;-86
2021/11/19 13:33:23;;;;;;;2.00;1.90;;;;;;;;;;5060825;28;20213;-86
2021/11/19 13:36:29;;;;;;;1.88;1.77;;;;;;;;;;5060070;28;20675;-86
2021/11/19 13:39:30;;;;;;;1.70;1.60;;;;;;;;;;5053917;28;20315;-85
2021/11/19 13:42:44;;;;;;;2.28;2.13;;;;;;;;;;5057410;28;20664;-86
2021/11/19 13:45:56;;;;;;;2.30;2.20;;;;;;;;;;5059938;28;20402;-85
2021/11/19 13:48:42;;;;;;;2.35;2.08;;;;;;;;;;5059387;28;20203;-85
2021/11/19 13:51:44;;;;;;;1.95;1.85;;;;;;;;;;5059764;28;20229;-86
2021/11/19 13:54:29;;;;;;;1.70;1.60;;;;;;;;;;5055632;28;20207;-85
2021/11/19 13:57:12;;;;;;;2.10;2.00;;;;;;;;;;5059796;28;20778;-85
2021/11/19 13:59:56;;;;;;;2.47;2.28;;;;;;;;;;5060587;28;20217;-84
2021/11/19 14:02:37;;;;;;;3.08;2.75;;;;;;;;;;5059670;28;20241;-85
2021/11/19 14:05:15;;;;;;;2.28;2.08;;;;;;;;;;5060055;28;20198;-85
2021/11/19 14:07:56;;;;;;;2.08;1.98;;;;;;;;;;5060423;28;20201;-85
2021/11/19 14:10:35;;;;;;;2.25;2.05;;;;;;;;;;5060412;28;20243;-85
2021/11/19 14:13:06;;;;;;;3.67;2.22;;;;;;;;;;5060079;28;20224;-85
2021/11/19 14:15:37;;;;;;;2.67;2.45;;;;;;;;;;5059999;28;20668;-84
2021/11/19 14:18:24;;;;;;;1.88;1.77;;;;;;;;;;5058640;28;20210;-85
2021/11/19 14:24:00;;;;;;;2.85;1.77;;;;;;;;;;5059735;28;20208;-85
2021/11/19 14:26:33;;;;;;;2.10;1.95;;;;;;;;;;5058539;28;20208;-85
2021/11/19 14:29:08;;;;;;;2.17;1.90;;;;;;;;;;5059079;28;20712;-85
2021/11/19 14:31:43;;;;;;;2.65;2.45;;;;;;;;;;5059516;28;20204;-85
2021/11/19 14:34:14;;;;;;;3.90;1.90;;;;;;;;;;5059535;28;20228;-85
2021/11/19 14:36:51;;;;;;;1.73;1.63;;;;;;;;;;5059409;28;20241;-85
2021/11/19 14:39:23;;;;;;;1.80;1.70;;;;;;;;;;5059552;28;20222;-85
2021/11/19 14:41:57;;;;;;;2.25;2.05;;;;;;;;;;5059486;28;20198;-85
2021/11/19 14:44:29;;;;;;;3.45;2.20;;;;;;;;;;5059785;28;20207;-84
2021/11/19 14:47:03;;;;;;;3.13;2.83;;;;;;;;;;5061438;28;20198;-84
2021/11/19 14:49:38;;;;;;;5.13;4.03;;;;;;;;;;5062808;28;20215;-84
2021/11/19 14:52:34;;;;;;;3.65;3.35;;;;;;;;;;5059686;28;20659;-85
2021/11/19 14:55:25;;;;;;;5.10;4.60;;;;;;;;;;5059709;28;20301;-84
2021/11/19 14:57:59;;;;;;;3.53;3.22;;;;;;;;;;5059111;28;20212;-85
2021/11/19 15:00:36;;;;;;;5.13;4.32;;;;;;;;;;5058882;28;20220;-84
2021/11/19 15:03:09;;;;;;;4.20;3.80;;;;;;;;;;5061220;28;20573;-85
2021/11/19 15:05:45;;;;;;;4.70;4.28;;;;;;;;;;5059343;28;20201;-85
2021/11/19 15:08:30;;;;;;;4.80;4.30;;;;;;;;;;5058857;28;20223;-85
2021/11/19 15:11:23;;;;;;;4.18;3.65;;;;;;;;;;5039212;28;20198;-85
2021/11/19 15:14:20;;;;;;;4.10;3.70;;;;;;;;;;5039095;28;20261;-84
2021/11/19 15:16:51;;;;;;;3.45;3.15;;;;;;;;;;5038517;28;20206;-85
2021/11/19 15:19:43;;;;;;;2.90;2.70;;;;;;;;;;5038286;28;20708;-85
2021/11/19 15:22:29;;;;;;;3.78;3.40;;;;;;;;;;5038595;28;20248;-85
2021/11/19 15:25:09;;;;;;;3.15;2.85;;;;;;;;;;5038406;28;20202;-85
2021/11/19 15:27:49;;;;;;;3.83;3.50;;;;;;;;;;5037528;28;20208;-84
2021/11/19 15:30:44;;;;;;;3.92;3.63;;;;;;;;;;5037493;28;20751;-85
2021/11/19 15:33:25;;;;;;;3.95;3.65;;;;;;;;;;5027595;28;20222;-85
2021/11/19 15:36:06;;;;;;;3.35;3.05;;;;;;;;;;5038146;28;20201;-85
2021/11/19 15:38:41;;;;;;;4.35;3.78;;;;;;;;;;5037268;28;20232;-85